Time;durP1;ratioP1;P1;durP2;ratioP2;P2;SDS_P1;SDS_P2;PMS_P1;PMS_P2;Temp;Humidity;BMP_temperature;BMP_pressure;BME280_temperature;BME280_humidity;BME280_pressure;Samples;Min_cycle;Max_cycle;Signal;HPM_P1;HPM_P2
2023/05/24 00:01:06;;;;;;;7.40;1.45;;;;;;;;;;6275832;22;20431;-93
2023/05/24 00:03:33;;;;;;;7.10;1.30;;;;;;;;;;6283826;22;19987;-94
2023/05/24 00:05:59;;;;;;;10.77;1.67;;;;;;;;;;6286144;22;20008;-95
2023/05/24 00:08:24;;;;;;;8.85;1.20;;;;;;;;;;6276814;22;20006;-94
2023/05/24 00:10:49;;;;;;;9.63;2.10;;;;;;;;;;6274498;22;20011;-94
2023/05/24 00:13:15;;;;;;;8.57;1.50;;;;;;;;;;6275489;22;20369;-95
2023/05/24 00:15:40;;;;;;;6.10;1.30;;;;;;;;;;6277458;22;20015;-94
2023/05/24 00:18:05;;;;;;;10.63;1.48;;;;;;;;;;6276357;22;20003;-94
2023/05/24 00:20:31;;;;;;;7.45;2.30;;;;;;;;;;6275907;22;20008;-93
2023/05/24 00:22:56;;;;;;;7.70;1.63;;;;;;;;;;6275601;22;20027;-95
2023/05/24 00:25:21;;;;;;;15.35;2.20;;;;;;;;;;6276576;22;20003;-95
2023/05/24 00:27:47;;;;;;;8.73;1.50;;;;;;;;;;6250531;22;20011;-95
2023/05/24 00:30:12;;;;;;;7.07;1.70;;;;;;;;;;6276642;22;20012;-94
2023/05/24 00:32:37;;;;;;;9.27;1.58;;;;;;;;;;6276986;22;20383;-95
2023/05/24 00:35:03;;;;;;;4.70;1.65;;;;;;;;;;6276927;22;20094;-94
2023/05/24 00:37:28;;;;;;;9.20;1.50;;;;;;;;;;6275814;22;20239;-95
2023/05/24 00:39:54;;;;;;;12.75;1.98;;;;;;;;;;6275638;22;20007;-95
2023/05/24 00:42:19;;;;;;;6.28;1.45;;;;;;;;;;6276148;22;20070;-95
2023/05/24 00:44:45;;;;;;;3.35;1.20;;;;;;;;;;6277996;22;20085;-94
2023/05/24 00:47:10;;;;;;;7.40;1.48;;;;;;;;;;6275867;22;20046;-94
2023/05/24 00:49:36;;;;;;;7.50;1.63;;;;;;;;;;6275200;22;20004;-95
2023/05/24 00:52:01;;;;;;;10.05;1.83;;;;;;;;;;6276125;22;20008;-93
2023/05/24 00:54:27;;;;;;;7.72;1.83;;;;;;;;;;6276085;22;20105;-95
2023/05/24 00:57:02;;;;;;;7.70;1.77;;;;;;;;;;6276179;22;20003;-94
2023/05/24 00:59:27;;;;;;;13.32;2.33;;;;;;;;;;6276643;22;20004;-94
2023/05/24 01:01:54;;;;;;;6.47;2.08;;;;;;;;;;6278039;22;20421;-95
2023/05/24 01:04:19;;;;;;;11.07;1.80;;;;;;;;;;6278204;22;20371;-94
2023/05/24 01:06:58;;;;;;;12.77;2.28;;;;;;;;;;6278857;22;20062;-94
2023/05/24 01:09:33;;;;;;;6.30;1.98;;;;;;;;;;6278602;22;20004;-94
2023/05/24 01:12:04;;;;;;;12.52;1.85;;;;;;;;;;6277759;22;20012;-95
2023/05/24 01:14:43;;;;;;;5.70;1.70;;;;;;;;;;6278366;22;20022;-95
2023/05/24 01:17:13;;;;;;;6.85;1.88;;;;;;;;;;6279849;22;20003;-94
2023/05/24 01:19:50;;;;;;;7.07;1.58;;;;;;;;;;6255302;22;20008;-93
2023/05/24 01:22:31;;;;;;;8.68;1.92;;;;;;;;;;6281660;22;20109;-94
2023/05/24 01:25:07;;;;;;;10.63;2.25;;;;;;;;;;6283721;22;20000;-94
2023/05/24 01:27:35;;;;;;;4.70;1.50;;;;;;;;;;6283096;22;20012;-94
2023/05/24 01:30:01;;;;;;;5.22;1.58;;;;;;;;;;6277704;22;20449;-94
2023/05/24 01:32:27;;;;;;;7.97;1.95;;;;;;;;;;6277468;22;20027;-95
2023/05/24 01:34:52;;;;;;;11.38;1.80;;;;;;;;;;6276298;22;20335;-95
2023/05/24 01:37:18;;;;;;;9.90;2.28;;;;;;;;;;6277967;22;20482;-95
2023/05/24 01:39:46;;;;;;;3.80;1.40;;;;;;;;;;6251925;22;20000;-94
2023/05/24 01:42:30;;;;;;;7.15;1.67;;;;;;;;;;6275023;22;20042;-95
2023/05/24 01:45:14;;;;;;;5.72;1.63;;;;;;;;;;6279797;22;20015;-95
2023/05/24 01:47:56;;;;;;;3.45;1.33;;;;;;;;;;6277920;22;20006;-95
2023/05/24 01:50:25;;;;;;;7.53;1.30;;;;;;;;;;6278407;22;20383;-95
2023/05/24 01:52:51;;;;;;;10.25;1.60;;;;;;;;;;6279294;22;19995;-95
2023/05/24 01:55:17;;;;;;;4.03;1.50;;;;;;;;;;6281377;22;20003;-94
2023/05/24 01:57:43;;;;;;;10.77;1.65;;;;;;;;;;6253709;22;20026;-96
2023/05/24 02:00:09;;;;;;;8.75;2.03;;;;;;;;;;6279311;22;20000;-96
2023/05/24 02:02:38;;;;;;;6.80;1.70;;;;;;;;;;6256459;22;20111;-94
2023/05/24 02:05:04;;;;;;;4.45;1.30;;;;;;;;;;6282569;22;20007;-93
2023/05/24 02:07:29;;;;;;;3.85;1.30;;;;;;;;;;6282212;22;20012;-94
2023/05/24 02:09:56;;;;;;;5.60;1.60;;;;;;;;;;6283051;22;20069;-94
2023/05/24 02:12:22;;;;;;;4.30;1.40;;;;;;;;;;6282378;22;20312;-94
2023/05/24 02:14:49;;;;;;;3.95;1.65;;;;;;;;;;6282452;22;20007;-95
2023/05/24 02:17:16;;;;;;;5.82;1.60;;;;;;;;;;6282606;22;20008;-94
2023/05/24 02:19:43;;;;;;;5.17;1.63;;;;;;;;;;6255602;22;20011;-96
2023/05/24 02:22:08;;;;;;;4.05;1.50;;;;;;;;;;6281325;22;20366;-95
2023/05/24 02:24:39;;;;;;;7.05;1.73;;;;;;;;;;6282508;22;20047;-94
2023/05/24 02:27:06;;;;;;;8.40;1.70;;;;;;;;;;6281893;22;20022;-96
2023/05/24 02:29:32;;;;;;;8.23;1.70;;;;;;;;;;6282363;22;20019;-93
2023/05/24 02:31:58;;;;;;;9.63;1.80;;;;;;;;;;6281544;22;20022;-94
2023/05/24 02:34:24;;;;;;;7.93;1.63;;;;;;;;;;6281716;22;20003;-95
2023/05/24 02:36:50;;;;;;;6.03;1.83;;;;;;;;;;6283201;22;20476;-95
2023/05/24 02:39:16;;;;;;;4.18;1.60;;;;;;;;;;6282477;22;20433;-95
2023/05/24 02:41:55;;;;;;;7.20;1.75;;;;;;;;;;6280997;22;20012;-94
2023/05/24 02:44:20;;;;;;;5.65;2.00;;;;;;;;;;6281766;22;20046;-95
2023/05/24 02:46:59;;;;;;;4.27;2.00;;;;;;;;;;6283852;22;19996;-93
2023/05/24 02:49:25;;;;;;;;;;;;;;;;;;6286250;22;20023;-94
2023/05/24 02:51:51;;;;;;;3.23;1.43;;;;;;;;;;6285783;22;19915;-94
2023/05/24 02:54:19;;;;;;;9.20;1.90;;;;;;;;;;6281734;22;20010;-95
2023/05/24 02:56:44;;;;;;;7.67;1.80;;;;;;;;;;6283490;22;20014;-95
2023/05/24 02:59:10;;;;;;;7.17;1.77;;;;;;;;;;6257513;22;20000;-94
2023/05/24 03:01:39;;;;;;;7.47;1.65;;;;;;;;;;6280744;22;20049;-94
2023/05/24 03:04:05;;;;;;;5.70;1.40;;;;;;;;;;6283223;22;20000;-95
2023/05/24 03:06:36;;;;;;;7.70;1.73;;;;;;;;;;6281696;22;20030;-95
2023/05/24 03:09:04;;;;;;;7.13;1.93;;;;;;;;;;6278164;22;19995;-96
2023/05/24 03:11:35;;;;;;;4.60;1.57;;;;;;;;;;6282996;22;20026;-95
2023/05/24 03:14:05;;;;;;;6.37;2.00;;;;;;;;;;6283722;22;20000;-95
2023/05/24 03:16:31;;;;;;;10.23;2.00;;;;;;;;;;6282828;22;20007;-94
2023/05/24 03:18:58;;;;;;;6.73;2.27;;;;;;;;;;6281750;22;20026;-95
2023/05/24 03:21:24;;;;;;;6.80;2.27;;;;;;;;;;6281569;22;20015;-93
2023/05/24 03:23:52;;;;;;;6.72;2.13;;;;;;;;;;6280565;22;20055;-94
2023/05/24 03:26:20;;;;;;;8.93;2.07;;;;;;;;;;6282774;22;20000;-95
2023/05/24 03:28:50;;;;;;;10.30;2.33;;;;;;;;;;6285218;22;20064;-96
2023/05/24 03:31:19;;;;;;;5.30;1.80;;;;;;;;;;6290483;22;20019;-95
2023/05/24 03:33:48;;;;;;;6.85;1.95;;;;;;;;;;6282905;22;20063;-93
2023/05/24 03:36:14;;;;;;;8.13;2.00;;;;;;;;;;6287112;22;20004;-94
2023/05/24 03:38:41;;;;;;;6.77;1.90;;;;;;;;;;6285852;22;20003;-94
2023/05/24 03:41:08;;;;;;;8.27;2.03;;;;;;;;;;6285079;22;20007;-94
2023/05/24 03:43:34;;;;;;;10.10;2.43;;;;;;;;;;6279283;22;19996;-94
2023/05/24 03:46:00;;;;;;;12.80;3.00;;;;;;;;;;6277763;22;20435;-94
2023/05/24 03:48:33;;;;;;;7.83;2.03;;;;;;;;;;6278917;22;20003;-94
2023/05/24 03:50:58;;;;;;;6.40;2.20;;;;;;;;;;6278527;22;20015;-96
2023/05/24 03:53:25;;;;;;;4.83;2.07;;;;;;;;;;6279195;22;20079;-95
2023/05/24 03:55:51;;;;;;;8.27;2.27;;;;;;;;;;6280269;22;20015;-94
2023/05/24 03:58:17;;;;;;;4.37;2.27;;;;;;;;;;6275176;22;19991;-93
2023/05/24 04:00:42;;;;;;;12.43;2.70;;;;;;;;;;6278548;22;19999;-94
2023/05/24 04:03:07;;;;;;;8.53;2.20;;;;;;;;;;6278979;22;20008;-95
2023/05/24 04:05:33;;;;;;;7.33;2.37;;;;;;;;;;6278254;22;20428;-94
2023/05/24 04:08:00;;;;;;;9.07;2.10;;;;;;;;;;6278731;22;20026;-94
2023/05/24 04:10:25;;;;;;;7.23;2.43;;;;;;;;;;6277514;22;20020;-95
2023/05/24 04:12:52;;;;;;;7.70;2.00;;;;;;;;;;6278250;22;20004;-94
2023/05/24 04:15:17;;;;;;;8.30;2.43;;;;;;;;;;6277899;22;20000;-94
2023/05/24 04:17:43;;;;;;;8.53;2.17;;;;;;;;;;6278282;22;20012;-94
2023/05/24 04:20:09;;;;;;;7.93;2.13;;;;;;;;;;6278636;22;20082;-93
2023/05/24 04:22:35;;;;;;;10.15;2.22;;;;;;;;;;6280158;22;20449;-94
2023/05/24 04:25:01;;;;;;;7.00;1.95;;;;;;;;;;6283383;22;19996;-94
2023/05/24 04:27:29;;;;;;;7.93;2.00;;;;;;;;;;6257568;22;20091;-94
2023/05/24 04:29:54;;;;;;;9.43;2.28;;;;;;;;;;6282266;22;20004;-95
2023/05/24 04:32:32;;;;;;;6.85;3.50;;;;;;;;;;6280988;22;20004;-95
2023/05/24 04:35:03;;;;;;;11.10;4.30;;;;;;;;;;6282149;22;20011;-95
2023/05/24 04:37:47;;;;;;;7.67;3.70;;;;;;;;;;6281385;22;20499;-95
2023/05/24 04:40:13;;;;;;;7.07;3.00;;;;;;;;;;6257120;22;20423;-94
2023/05/24 04:42:39;;;;;;;7.77;2.90;;;;;;;;;;6275740;22;20018;-95
2023/05/24 04:45:05;;;;;;;11.77;2.38;;;;;;;;;;6275122;22;20004;-94
2023/05/24 04:47:34;;;;;;;5.93;2.10;;;;;;;;;;6253596;22;20004;-94
2023/05/24 04:50:01;;;;;;;8.48;2.42;;;;;;;;;;6276782;22;20022;-94
2023/05/24 04:52:27;;;;;;;9.75;2.55;;;;;;;;;;6281292;22;20013;-95
2023/05/24 04:54:56;;;;;;;9.10;2.38;;;;;;;;;;6282740;22;20008;-93
2023/05/24 04:57:24;;;;;;;7.78;2.25;;;;;;;;;;6283528;22;20105;-94
2023/05/24 04:59:50;;;;;;;8.65;2.65;;;;;;;;;;6255260;22;20080;-95
2023/05/24 05:02:16;;;;;;;4.15;2.30;;;;;;;;;;6280249;22;20003;-94
2023/05/24 05:04:41;;;;;;;5.90;2.60;;;;;;;;;;6280691;22;20000;-94
2023/05/24 05:07:07;;;;;;;8.10;2.13;;;;;;;;;;6280286;22;20007;-94
2023/05/24 05:09:32;;;;;;;11.02;2.50;;;;;;;;;;6281891;22;20011;-95
2023/05/24 05:11:59;;;;;;;9.05;2.28;;;;;;;;;;6281841;22;20057;-94
2023/05/24 05:14:24;;;;;;;9.98;2.50;;;;;;;;;;6281579;22;20000;-95
2023/05/24 05:16:51;;;;;;;7.35;2.58;;;;;;;;;;6280686;22;20008;-95
2023/05/24 05:19:16;;;;;;;9.02;2.60;;;;;;;;;;6281850;22;19988;-95
2023/05/24 05:21:41;;;;;;;7.43;2.60;;;;;;;;;;6280493;22;20012;-94
2023/05/24 05:24:11;;;;;;;12.55;3.83;;;;;;;;;;6280895;22;20071;-95
2023/05/24 05:26:36;;;;;;;10.18;2.85;;;;;;;;;;6281237;22;20094;-94
2023/05/24 05:29:01;;;;;;;13.52;3.28;;;;;;;;;;6279784;22;20019;-94
2023/05/24 05:31:30;;;;;;;10.35;3.00;;;;;;;;;;6280881;22;20011;-94
2023/05/24 05:33:55;;;;;;;9.10;3.38;;;;;;;;;;6281168;22;20004;-94
2023/05/24 05:36:22;;;;;;;11.93;3.50;;;;;;;;;;6281011;22;20031;-95
2023/05/24 05:38:47;;;;;;;12.40;3.03;;;;;;;;;;6279338;22;19992;-95
2023/05/24 05:41:13;;;;;;;10.35;3.70;;;;;;;;;;6281166;22;20008;-94
2023/05/24 05:43:40;;;;;;;14.52;3.42;;;;;;;;;;6280925;22;19992;-93
2023/05/24 05:46:06;;;;;;;9.73;3.38;;;;;;;;;;6279795;22;20007;-94
2023/05/24 05:48:31;;;;;;;11.32;3.35;;;;;;;;;;6279488;22;20022;-94
2023/05/24 05:50:56;;;;;;;12.73;3.60;;;;;;;;;;6281539;22;20027;-95
2023/05/24 05:53:25;;;;;;;12.10;4.07;;;;;;;;;;6283810;22;19999;-94
2023/05/24 05:55:50;;;;;;;14.00;3.67;;;;;;;;;;6283047;22;20008;-94
2023/05/24 05:58:20;;;;;;;9.43;3.45;;;;;;;;;;6282178;22;20482;-94
2023/05/24 06:01:05;;;;;;;21.02;3.55;;;;;;;;;;6281483;22;20015;-95
2023/05/24 06:03:32;;;;;;;8.32;3.10;;;;;;;;;;6281261;22;20083;-95
2023/05/24 06:06:00;;;;;;;20.27;4.53;;;;;;;;;;6285177;22;20008;-94
2023/05/24 06:08:33;;;;;;;14.05;3.13;;;;;;;;;;6282777;22;19999;-94
2023/05/24 06:11:01;;;;;;;16.15;3.75;;;;;;;;;;6284126;22;20038;-95
2023/05/24 06:13:27;;;;;;;9.68;3.38;;;;;;;;;;6257211;22;20091;-95
2023/05/24 06:15:53;;;;;;;25.77;3.28;;;;;;;;;;6284114;22;20011;-94
2023/05/24 06:18:19;;;;;;;14.60;3.60;;;;;;;;;;6284245;22;19996;-95
2023/05/24 06:20:46;;;;;;;8.50;3.08;;;;;;;;;;6284363;22;20019;-94
2023/05/24 06:23:12;;;;;;;13.40;3.38;;;;;;;;;;6284077;22;20008;-94
2023/05/24 06:25:42;;;;;;;13.00;2.80;;;;;;;;;;6286783;22;20004;-94
2023/05/24 06:28:09;;;;;;;9.63;3.20;;;;;;;;;;6279813;22;20004;-94
2023/05/24 06:30:35;;;;;;;11.77;2.58;;;;;;;;;;6283636;22;20035;-94
2023/05/24 06:33:01;;;;;;;19.08;3.53;;;;;;;;;;6283570;22;20010;-96
2023/05/24 06:35:26;;;;;;;17.10;4.05;;;;;;;;;;6254570;22;20417;-94
2023/05/24 06:37:52;;;;;;;9.98;2.88;;;;;;;;;;6278707;22;20000;-94
2023/05/24 06:40:18;;;;;;;15.65;3.85;;;;;;;;;;6279432;22;20007;-95
2023/05/24 06:42:44;;;;;;;20.25;3.38;;;;;;;;;;6277879;22;20008;-96
2023/05/24 06:45:13;;;;;;;16.50;4.00;;;;;;;;;;6277710;22;20449;-96
2023/05/24 06:47:39;;;;;;;15.35;3.17;;;;;;;;;;6277753;22;19995;-94
2023/05/24 06:50:06;;;;;;;15.38;2.90;;;;;;;;;;6276479;22;20022;-95
2023/05/24 06:52:31;;;;;;;17.73;2.97;;;;;;;;;;6281434;22;20003;-94
2023/05/24 06:54:59;;;;;;;13.13;2.85;;;;;;;;;;6278092;22;20010;-95
2023/05/24 06:57:27;;;;;;;8.70;2.17;;;;;;;;;;6276104;22;20504;-95
2023/05/24 06:59:53;;;;;;;13.60;3.42;;;;;;;;;;6276170;22;20061;-95
2023/05/24 07:02:25;;;;;;;13.00;3.42;;;;;;;;;;6280709;22;20063;-95
2023/05/24 07:04:53;;;;;;;11.38;2.42;;;;;;;;;;6272909;22;20008;-95
2023/05/24 07:07:25;;;;;;;17.10;3.30;;;;;;;;;;6296698;22;20021;-96
2023/05/24 07:10:10;;;;;;;15.13;2.97;;;;;;;;;;6271555;22;20047;-96
2023/05/24 07:12:37;;;;;;;10.27;3.22;;;;;;;;;;6289157;22;20004;-93
2023/05/24 07:15:08;;;;;;;20.10;3.72;;;;;;;;;;6282672;22;20003;-95
2023/05/24 07:17:34;;;;;;;13.87;2.70;;;;;;;;;;6275583;22;20067;-94
2023/05/24 07:20:00;;;;;;;8.98;3.25;;;;;;;;;;6255223;22;20026;-94
2023/05/24 07:22:27;;;;;;;15.63;2.85;;;;;;;;;;6283194;22;20082;-95
2023/05/24 07:24:54;;;;;;;18.80;3.28;;;;;;;;;;6281995;22;20031;-94
2023/05/24 07:27:21;;;;;;;8.68;2.13;;;;;;;;;;6282120;22;20003;-94
2023/05/24 07:29:49;;;;;;;11.60;2.80;;;;;;;;;;6283136;22;20007;-94
2023/05/24 07:32:16;;;;;;;17.33;3.72;;;;;;;;;;6280775;22;20022;-94
2023/05/24 07:34:57;;;;;;;11.32;2.85;;;;;;;;;;6285689;22;19995;-94
2023/05/24 07:37:23;;;;;;;18.67;3.40;;;;;;;;;;6284200;22;20003;-94
2023/05/24 07:39:51;;;;;;;16.25;3.35;;;;;;;;;;6282667;22;20004;-94
2023/05/24 07:42:20;;;;;;;14.90;3.63;;;;;;;;;;6256714;22;19995;-95
2023/05/24 07:45:17;;;;;;;13.32;2.70;;;;;;;;;;6281150;22;20091;-96
2023/05/24 07:47:55;;;;;;;;;;;;;;;;;;;;;
2023/05/24 07:50:47;;;;;;;10.77;3.65;;;;;;;;;;6281042;22;20110;-96
2023/05/24 07:53:50;;;;;;;9.05;2.80;;;;;;;;;;6241293;22;19999;-96
2023/05/24 07:56:27;;;;;;;10.20;3.05;;;;;;;;;;6261536;22;20016;-96
2023/05/24 08:02:12;;;;;;;;;;;;;;;;;;;;;
2023/05/24 08:04:50;;;;;;;12.45;2.70;;;;;;;;;;6281918;22;20027;-95
2023/05/24 08:07:22;;;;;;;18.52;2.58;;;;;;;;;;6276369;22;20035;-95
2023/05/24 08:10:07;;;;;;;;;;;;;;;;;;;;;
2023/05/24 08:12:40;;;;;;;14.38;3.47;;;;;;;;;;6288566;22;20027;-96
2023/05/24 08:15:34;;;;;;;7.65;2.08;;;;;;;;;;6279955;22;20342;-96
2023/05/24 08:18:20;;;;;;;13.05;3.60;;;;;;;;;;6277746;22;20066;-94
2023/05/24 08:20:45;;;;;;;20.08;4.20;;;;;;;;;;6278489;22;20027;-94
2023/05/24 08:23:13;;;;;;;17.95;5.22;;;;;;;;;;6279065;22;20604;-94
2023/05/24 08:25:53;;;;;;;12.15;3.30;;;;;;;;;;6279833;22;19992;-95
2023/05/24 08:28:21;;;;;;;13.85;3.13;;;;;;;;;;6282890;22;20020;-94
2023/05/24 08:30:46;;;;;;;19.88;3.90;;;;;;;;;;6286226;22;20014;-94
2023/05/24 08:33:13;;;;;;;14.80;3.92;;;;;;;;;;6279556;22;20000;-94
2023/05/24 08:35:40;;;;;;;11.13;3.30;;;;;;;;;;6275952;22;20418;-94
2023/05/24 08:38:05;;;;;;;11.55;3.35;;;;;;;;;;6281470;22;20003;-94
2023/05/24 08:40:30;;;;;;;15.75;2.97;;;;;;;;;;6279822;22;20062;-95
2023/05/24 08:42:58;;;;;;;11.05;3.10;;;;;;;;;;6279136;22;20004;-94
2023/05/24 08:45:25;;;;;;;7.18;2.22;;;;;;;;;;6252312;22;20003;-95
2023/05/24 08:47:50;;;;;;;11.23;2.53;;;;;;;;;;6277831;22;20003;-95
2023/05/24 08:50:18;;;;;;;9.13;2.67;;;;;;;;;;6278616;22;19996;-95
2023/05/24 08:52:46;;;;;;;12.70;2.42;;;;;;;;;;6277784;22;20011;-94
2023/05/24 08:55:11;;;;;;;8.30;2.13;;;;;;;;;;6278360;22;20000;-94
2023/05/24 08:57:39;;;;;;;10.90;2.67;;;;;;;;;;6278350;22;20007;-95
2023/05/24 09:00:08;;;;;;;16.08;3.65;;;;;;;;;;6278867;22;20000;-94
2023/05/24 09:02:35;;;;;;;12.02;2.90;;;;;;;;;;6279556;22;20019;-94
2023/05/24 09:05:01;;;;;;;7.72;2.85;;;;;;;;;;6278702;22;20000;-95
2023/05/24 09:07:27;;;;;;;17.85;3.35;;;;;;;;;;6277234;22;20046;-95
2023/05/24 09:09:57;;;;;;;5.32;2.80;;;;;;;;;;6277257;22;19995;-94
2023/05/24 09:12:25;;;;;;;9.30;3.15;;;;;;;;;;6278417;22;20030;-95
2023/05/24 09:14:52;;;;;;;14.05;2.40;;;;;;;;;;6279641;22;19999;-95
2023/05/24 09:17:18;;;;;;;9.10;2.85;;;;;;;;;;6277911;22;20003;-95
2023/05/24 09:19:50;;;;;;;11.65;2.83;;;;;;;;;;6278067;22;19999;-95
2023/05/24 09:22:19;;;;;;;18.13;3.42;;;;;;;;;;6277856;22;20015;-94
2023/05/24 09:24:49;;;;;;;10.25;2.83;;;;;;;;;;6275756;22;20032;-95
2023/05/24 09:27:23;;;;;;;17.90;3.50;;;;;;;;;;6277099;22;20350;-95
2023/05/24 09:29:50;;;;;;;12.43;2.95;;;;;;;;;;6253323;22;19996;-95
2023/05/24 09:32:17;;;;;;;11.32;2.60;;;;;;;;;;6278916;22;20016;-94
2023/05/24 09:34:43;;;;;;;12.57;3.60;;;;;;;;;;6278165;22;20037;-95
2023/05/24 09:37:30;;;;;;;14.13;3.97;;;;;;;;;;6277577;22;20022;-94
2023/05/24 09:39:57;;;;;;;10.65;3.53;;;;;;;;;;6282484;22;19996;-95
2023/05/24 09:42:25;;;;;;;12.70;3.83;;;;;;;;;;6279259;22;20015;-95
2023/05/24 09:45:08;;;;;;;8.30;3.47;;;;;;;;;;6278709;22;20000;-95
2023/05/24 09:47:34;;;;;;;7.95;3.00;;;;;;;;;;6277762;22;20014;-94
2023/05/24 09:50:01;;;;;;;11.35;3.15;;;;;;;;;;6278778;22;20023;-95
2023/05/24 09:52:27;;;;;;;11.02;2.88;;;;;;;;;;6277756;22;20114;-95
2023/05/24 09:54:55;;;;;;;17.00;3.20;;;;;;;;;;6280730;22;20362;-95
2023/05/24 09:57:21;;;;;;;10.52;3.10;;;;;;;;;;6278565;22;20015;-96
2023/05/24 09:59:48;;;;;;;9.50;2.58;;;;;;;;;;6277626;22;20082;-95
2023/05/24 10:02:14;;;;;;;6.40;2.17;;;;;;;;;;6252050;22;20095;-95
2023/05/24 10:04:40;;;;;;;9.48;2.75;;;;;;;;;;6278801;22;19996;-95
2023/05/24 10:07:08;;;;;;;6.05;2.35;;;;;;;;;;6278170;22;20000;-95
2023/05/24 10:09:35;;;;;;;8.20;2.13;;;;;;;;;;6278288;22;20078;-96
2023/05/24 10:12:05;;;;;;;10.60;3.00;;;;;;;;;;6277184;22;20015;-96
2023/05/24 10:14:35;;;;;;;15.07;3.22;;;;;;;;;;6277276;22;20079;-95
2023/05/24 10:17:09;;;;;;;10.40;2.80;;;;;;;;;;6279051;22;20004;-95
2023/05/24 10:19:40;;;;;;;11.20;2.55;;;;;;;;;;6278816;22;20078;-94
2023/05/24 10:22:08;;;;;;;11.52;2.72;;;;;;;;;;6277069;22;20015;-95
2023/05/24 10:24:45;;;;;;;9.95;2.17;;;;;;;;;;6278266;22;20062;-95
2023/05/24 10:27:16;;;;;;;10.38;2.92;;;;;;;;;;6276744;22;20014;-96
2023/05/24 10:29:53;;;;;;;8.75;2.38;;;;;;;;;;6278591;22;20007;-96
2023/05/24 10:32:20;;;;;;;6.70;2.30;;;;;;;;;;6279376;22;20031;-96
2023/05/24 10:34:46;;;;;;;12.85;2.75;;;;;;;;;;6278650;22;20008;-96
2023/05/24 10:37:12;;;;;;;8.80;2.40;;;;;;;;;;6279917;22;20011;-95
2023/05/24 10:39:40;;;;;;;7.25;2.55;;;;;;;;;;6278485;22;20036;-96
2023/05/24 10:42:07;;;;;;;12.45;2.60;;;;;;;;;;6253168;22;20430;-96
2023/05/24 10:44:33;;;;;;;10.30;3.60;;;;;;;;;;6279873;22;20403;-95
2023/05/24 10:47:08;;;;;;;15.80;3.13;;;;;;;;;;6277792;22;20011;-95
2023/05/24 10:49:38;;;;;;;10.27;2.92;;;;;;;;;;6277503;22;20046;-95
2023/05/24 10:52:08;;;;;;;9.35;2.80;;;;;;;;;;6276899;22;20012;-96
2023/05/24 10:54:38;;;;;;;8.27;2.38;;;;;;;;;;6277662;22;20057;-95
2023/05/24 10:57:05;;;;;;;11.05;2.90;;;;;;;;;;6279388;22;20011;-95
2023/05/24 10:59:39;;;;;;;10.95;2.92;;;;;;;;;;6251852;22;20007;-94
2023/05/24 11:02:13;;;;;;;14.05;3.38;;;;;;;;;;6277395;22;20030;-96
2023/05/24 11:04:42;;;;;;;13.68;3.38;;;;;;;;;;6251934;22;20078;-96
2023/05/24 11:07:08;;;;;;;10.77;2.65;;;;;;;;;;6251711;22;20014;-95
2023/05/24 11:09:34;;;;;;;12.95;3.55;;;;;;;;;;6277523;22;20453;-95
2023/05/24 11:12:08;;;;;;;12.82;3.35;;;;;;;;;;6277854;22;20008;-96
2023/05/24 11:14:35;;;;;;;11.70;3.17;;;;;;;;;;6277056;22;20029;-95
2023/05/24 11:17:01;;;;;;;10.43;2.97;;;;;;;;;;6277335;22;20012;-95
2023/05/24 11:19:37;;;;;;;12.98;3.00;;;;;;;;;;6277382;22;20007;-95
2023/05/24 11:22:08;;;;;;;11.35;3.38;;;;;;;;;;6279391;22;20003;-96
2023/05/24 11:24:37;;;;;;;7.77;2.23;;;;;;;;;;6278918;22;20010;-95
2023/05/24 11:27:02;;;;;;;15.63;2.88;;;;;;;;;;6251314;22;20237;-95
2023/05/24 11:29:29;;;;;;;8.95;2.58;;;;;;;;;;6278446;22;20004;-95
2023/05/24 11:32:04;;;;;;;11.40;2.75;;;;;;;;;;6277992;22;20095;-95
2023/05/24 11:34:31;;;;;;;17.48;2.75;;;;;;;;;;6277902;22;20000;-95
2023/05/24 11:36:57;;;;;;;12.68;3.03;;;;;;;;;;6277509;22;19999;-95
2023/05/24 11:39:24;;;;;;;20.77;2.90;;;;;;;;;;6276848;22;19995;-95
2023/05/24 11:41:53;;;;;;;14.43;2.88;;;;;;;;;;6278268;22;20003;-94
2023/05/24 11:44:21;;;;;;;12.18;2.75;;;;;;;;;;6278075;22;20044;-95
2023/05/24 11:46:57;;;;;;;15.80;3.00;;;;;;;;;;6276426;22;20008;-95
2023/05/24 11:49:25;;;;;;;16.75;3.08;;;;;;;;;;6276093;22;20038;-95
2023/05/24 11:51:53;;;;;;;11.02;2.97;;;;;;;;;;6279026;22;20065;-95
2023/05/24 11:54:21;;;;;;;10.88;3.60;;;;;;;;;;6278312;22;19996;-95
2023/05/24 11:56:50;;;;;;;13.57;3.60;;;;;;;;;;6279402;22;20027;-96
2023/05/24 11:59:40;;;;;;;13.70;3.63;;;;;;;;;;6252840;22;20095;-94
2023/05/24 12:02:06;;;;;;;19.85;3.95;;;;;;;;;;6272050;22;20031;-94
2023/05/24 12:04:33;;;;;;;10.75;3.50;;;;;;;;;;6277524;22;20046;-95
2023/05/24 12:06:58;;;;;;;12.60;3.17;;;;;;;;;;6277405;22;20026;-95
2023/05/24 12:09:27;;;;;;;11.27;3.10;;;;;;;;;;6250820;22;20430;-95
2023/05/24 12:11:57;;;;;;;11.57;3.08;;;;;;;;;;6276796;22;20016;-94
2023/05/24 12:14:25;;;;;;;10.00;3.13;;;;;;;;;;6251344;22;19996;-95
2023/05/24 12:16:52;;;;;;;10.85;2.83;;;;;;;;;;6276864;22;20340;-95
2023/05/24 12:19:18;;;;;;;13.02;3.38;;;;;;;;;;6278210;22;20410;-95
2023/05/24 12:22:04;;;;;;;16.70;3.95;;;;;;;;;;6280089;22;20010;-94
2023/05/24 12:24:31;;;;;;;10.02;3.33;;;;;;;;;;6282530;22;19999;-95
2023/05/24 12:26:57;;;;;;;11.25;2.70;;;;;;;;;;6254109;22;20015;-95
2023/05/24 12:29:25;;;;;;;9.75;2.75;;;;;;;;;;6278987;22;20000;-95
2023/05/24 12:31:51;;;;;;;6.78;2.70;;;;;;;;;;6280150;22;20079;-96
2023/05/24 12:34:18;;;;;;;11.30;3.33;;;;;;;;;;6278222;22;20091;-95
2023/05/24 12:36:45;;;;;;;9.15;2.85;;;;;;;;;;6279732;22;20020;-95
2023/05/24 12:39:17;;;;;;;12.20;3.28;;;;;;;;;;6278683;22;20078;-95
2023/05/24 12:41:48;;;;;;;17.50;4.07;;;;;;;;;;6279706;22;20016;-94
2023/05/24 12:44:14;;;;;;;10.50;2.88;;;;;;;;;;6280228;22;20011;-96
2023/05/24 12:46:40;;;;;;;10.20;3.03;;;;;;;;;;6279333;22;20133;-95
2023/05/24 12:49:08;;;;;;;15.18;3.25;;;;;;;;;;6278889;22;20004;-95
2023/05/24 12:51:35;;;;;;;15.43;3.25;;;;;;;;;;6280621;22;20417;-94
2023/05/24 12:54:03;;;;;;;7.38;2.90;;;;;;;;;;6279844;22;20011;-95
2023/05/24 12:56:29;;;;;;;9.82;3.00;;;;;;;;;;6278582;22;20007;-95
2023/05/24 12:58:55;;;;;;;12.57;3.03;;;;;;;;;;6281737;22;20022;-94
2023/05/24 13:01:30;;;;;;;14.43;3.67;;;;;;;;;;6283491;22;20007;-95
2023/05/24 13:03:57;;;;;;;11.23;2.97;;;;;;;;;;6278300;22;20450;-95
2023/05/24 13:06:26;;;;;;;12.10;3.00;;;;;;;;;;6253678;22;20000;-96
2023/05/24 13:08:52;;;;;;;8.95;2.95;;;;;;;;;;6280957;22;20000;-95
2023/05/24 13:11:18;;;;;;;10.82;2.97;;;;;;;;;;6279850;22;20119;-96
2023/05/24 13:13:44;;;;;;;15.88;3.65;;;;;;;;;;6280531;22;20000;-95
2023/05/24 13:16:11;;;;;;;13.13;3.45;;;;;;;;;;6281674;22;20086;-94
2023/05/24 13:18:37;;;;;;;11.95;3.42;;;;;;;;;;6256215;22;20000;-95
2023/05/24 13:21:04;;;;;;;9.18;3.30;;;;;;;;;;6281206;22;20004;-94
2023/05/24 13:23:33;;;;;;;14.13;4.07;;;;;;;;;;6282324;22;20000;-95
2023/05/24 13:25:58;;;;;;;11.77;3.40;;;;;;;;;;6282717;22;20121;-95
2023/05/24 13:28:28;;;;;;;11.10;3.35;;;;;;;;;;6284313;22;20034;-94
2023/05/24 13:30:53;;;;;;;10.35;3.03;;;;;;;;;;6282428;22;20012;-95
2023/05/24 13:33:19;;;;;;;10.88;3.13;;;;;;;;;;6282332;22;20006;-94
2023/05/24 13:35:44;;;;;;;14.10;4.07;;;;;;;;;;6282526;22;20038;-95
2023/05/24 13:38:10;;;;;;;11.13;3.65;;;;;;;;;;6281292;22;20034;-96
2023/05/24 13:40:36;;;;;;;7.45;3.25;;;;;;;;;;6283768;22;20007;-94
2023/05/24 13:43:02;;;;;;;11.57;3.38;;;;;;;;;;6257206;22;20073;-95
2023/05/24 13:45:32;;;;;;;7.80;3.25;;;;;;;;;;6280604;22;20000;-95
2023/05/24 13:48:02;;;;;;;10.95;4.18;;;;;;;;;;6283381;22;20010;-95
2023/05/24 13:50:30;;;;;;;13.27;3.92;;;;;;;;;;6284102;22;19995;-95
2023/05/24 13:53:00;;;;;;;18.13;5.00;;;;;;;;;;6278960;22;20039;-94
2023/05/24 13:58:49;;;;;;;;;;;;;;;;;;;;;
2023/05/24 14:01:34;;;;;;;12.52;4.53;;;;;;;;;;6284559;22;20031;-96
2023/05/24 14:04:05;;;;;;;10.70;4.03;;;;;;;;;;6263788;22;20027;-96
2023/05/24 14:06:37;;;;;;;13.87;4.47;;;;;;;;;;6283688;22;20026;-95
2023/05/24 14:09:16;;;;;;;9.18;3.90;;;;;;;;;;6279244;22;20006;-95
2023/05/24 14:12:03;;;;;;;;;;;;;;;;;;;;;
2023/05/24 14:14:57;;;;;;;9.77;3.13;;;;;;;;;;6276131;22;20030;-95
2023/05/24 14:17:29;;;;;;;14.48;3.45;;;;;;;;;;6282233;22;20023;-96
2023/05/24 14:19:56;;;;;;;11.82;4.55;;;;;;;;;;6280795;22;20018;-95
2023/05/24 14:22:24;;;;;;;15.70;4.55;;;;;;;;;;6253339;22;20003;-95
2023/05/24 14:24:50;;;;;;;9.88;4.13;;;;;;;;;;6279110;22;20004;-95
2023/05/24 14:27:16;;;;;;;7.95;3.33;;;;;;;;;;6281499;22;20008;-96
2023/05/24 14:29:46;;;;;;;15.85;4.28;;;;;;;;;;6281699;22;19995;-96
2023/05/24 14:32:25;;;;;;;;;;;;;;;;;;;;;
2023/05/24 14:34:51;;;;;;;15.25;3.95;;;;;;;;;;6282433;22;20026;-95
2023/05/24 14:37:27;;;;;;;11.23;3.80;;;;;;;;;;6281500;22;20075;-96
2023/05/24 14:40:15;;;;;;;9.95;3.67;;;;;;;;;;6251735;22;20008;-95
2023/05/24 14:42:46;;;;;;;9.50;3.72;;;;;;;;;;6279197;22;19996;-95
2023/05/24 14:45:11;;;;;;;11.02;3.47;;;;;;;;;;6250769;22;20102;-95
2023/05/24 14:47:37;;;;;;;12.25;3.38;;;;;;;;;;6277622;22;20089;-95
2023/05/24 14:50:15;;;;;;;9.75;3.30;;;;;;;;;;6278349;22;20061;-96
2023/05/24 14:53:17;;;;;;;;;;;;;;;;;;;;;
2023/05/24 14:55:46;;;;;;;13.48;3.40;;;;;;;;;;6280215;22;20042;-95
2023/05/24 14:58:19;;;;;;;11.40;3.25;;;;;;;;;;6279331;22;20531;-95
2023/05/24 15:00:50;;;;;;;13.75;2.90;;;;;;;;;;6277108;22;20025;-96